Aérodrome :
LOGIN :

S'inscrire | Disclaimer

   EN    FR    IT 

 










Légende :    VFR   VFR Marginal   IFR   IFR Intensif   IFR Très Intensif
Visi : 
Plafond : 
>= 8 km
>= 3000ft
5 à 8 km
1000 à 3000 ft
1500m à 5 km
500 à 1000 ft
800 à 1500m
200 à 500 ft
< 800m
< 200 ft
Symboles :   Orages  Brouillard  Fortes neiges  Fortes précipitations  Vent > 20 kt
SIGMETs :   Divers  Orages  Givrage  Turbulence  Onde Orograph.  Cendres Volcan.







- Altitude de l'aérodrome : 465 ft
- Code IATA : LEJ


EDDP - Leipzig Halle

DERNIER METAR :
  • 210450Z 27008KT CAVOK 17/16 Q1016 NOSIG

METARs EXPIRÉS :
  • 210420Z 26009KT CAVOK 17/16 Q1016 NOSIG
  • 210350Z 24007KT CAVOK 17/16 Q1015 NOSIG
  • 210320Z 22005KT CAVOK 17/15 Q1015 NOSIG
  • 210250Z 22007KT CAVOK 17/16 Q1015 NOSIG
  • 210220Z 22009KT CAVOK 17/16 Q1015 NOSIG

TAF TAF EDDP
Valide du 21 à 00h jusqu'au 22 à 00h UTC


202300Z 2100/2124 24007KT 9999 SCT030
PROB30
TEMPO 2100/2104 24015G25KT -TSRA BKN014CB
TEMPO 2104/2108 BKN014
BECMG 2108/2111 28012KT
TEMPO 2111/2116 30015G25KT
BECMG 2116/2119 31007KT
Pas de NOTAMs connus pour ce terrain.



MET'MAP, la Météo Aéronautique d'un coup d'oeil ! - Copyright ORBIFLY Décembre 2007 - Disclaimer

ORBIFLY MET'MAP TEAM :

Programmation & Développement : Alexandra Zaïnal
Conception & Développement : Baudouin d'Aumeries
Co-Programmation & Développement : Marc-Olivier Méhu
Soutien technique & logistique : Manuel Goepfert

Contact : metmap@orbifly.com




SOURCES & CREDITS :

   NOAA